| ตารางข้อมูล | 4529T1 | 4529T2 | 4529T3 | 4529T4 | TH20402 | TH452-9A | TH452-9D | TH814 | ค้นข้อมูล1 | ค้นข้อมูล2 | ค่าสูงสุด-ต่ำสุด |  

Select Sensor -->| 20402 | 452-9A | 452-9D | 4529T1 | 4529T2 | 4529T3 | 4529T4 | 814 | หน้าจอย่อ | 4529 |
Data of room  452-9D

IDRoomDate  Temp  Humidity
 180439  452-9D  2021-02-23 05:28:08  27.5  71.0 
 178936  452-9D  2021-02-20 04:25:05  28.3  76.0 
 178928  452-9D  2021-02-20 04:05:02  28.3  75.4 
 178920  452-9D  2021-02-20 03:45:00  28.3  75.0 
 178912  452-9D  2021-02-20 03:24:58  28.3  75.0 
 178904  452-9D  2021-02-20 03:04:53  28.3  74.8 
 178896  452-9D  2021-02-20 02:44:48  28.4  75.2 
 178888  452-9D  2021-02-20 02:24:46  28.2  76.0 
 178880  452-9D  2021-02-20 02:04:43  28.4  75.4 
 178872  452-9D  2021-02-20 01:44:39  28.5  75.7 
 178864  452-9D  2021-02-20 01:24:36  28.6  75.8 
 178856  452-9D  2021-02-20 01:04:32  28.6  75.3 
 178848  452-9D  2021-02-20 00:44:27  28.7  74.8 
 178840  452-9D  2021-02-20 00:24:22  28.5  73.3 
 178832  452-9D  2021-02-20 00:04:20  28.8  73.6 
 178824  452-9D  2021-02-19 23:44:15  28.8  72.0 
 178816  452-9D  2021-02-19 23:24:13  28.8  72.0 
 178808  452-9D  2021-02-19 23:04:08  28.8  71.1 
 178800  452-9D  2021-02-19 22:44:06  28.8  71.1 
 178792  452-9D  2021-02-19 22:24:01  28.8  71.1 
 178784  452-9D  2021-02-19 22:03:59  28.8  70.3 
 178776  452-9D  2021-02-19 21:43:57  28.8  70.7 
 178768  452-9D  2021-02-19 21:23:54  28.9  71.5 
 178760  452-9D  2021-02-19 21:03:52  28.9  71.5 
 178752  452-9D  2021-02-19 20:43:49  28.9  71.4 
 178744  452-9D  2021-02-19 20:23:45  29.1  73.1 
 178736  452-9D  2021-02-19 20:03:38  29.1  73.1 
 178728  452-9D  2021-02-19 19:43:35  29.1  73.1 
 178720  452-9D  2021-02-19 19:23:31  29.1  72.9 
 178712  452-9D  2021-02-19 19:03:28  29.1  72.8 
 178704  452-9D  2021-02-19 18:43:26  29.1  72.8 
 178696  452-9D  2021-02-19 18:23:21  29.1  72.6 
 178688  452-9D  2021-02-19 18:03:19  29.1  72.6 
 178680  452-9D  2021-02-19 17:43:14  29.1  72.4 
 178672  452-9D  2021-02-19 17:23:10  29.1  72.3 
 178664  452-9D  2021-02-19 17:03:05  29.1  72.3 
 178656  452-9D  2021-02-19 16:43:03  29.0  72.3 
 178648  452-9D  2021-02-19 16:23:00  29.0  72.4 
 178640  452-9D  2021-02-19 16:02:58  28.9  72.4 
 178632  452-9D  2021-02-19 15:42:55  28.9  72.6 
 178624  452-9D  2021-02-19 15:22:53  28.9  72.9 
 178616  452-9D  2021-02-19 15:02:46  28.8  72.7 
 178608  452-9D  2021-02-19 14:42:42  28.7  72.9 
 178600  452-9D  2021-02-19 14:22:39  28.7  72.9 
 178592  452-9D  2021-02-19 14:02:34  28.5  73.2 
 178584  452-9D  2021-02-19 13:42:32  28.5  73.3 
 178576  452-9D  2021-02-19 13:22:30  28.5  73.3 
 178568  452-9D  2021-02-19 13:02:27  28.4  73.3 
 178560  452-9D  2021-02-19 12:42:25  28.4  73.3 
 178552  452-9D  2021-02-19 12:22:18  28.3  73.3 
 178544  452-9D  2021-02-19 12:02:13  28.2  73.5 
 178536  452-9D  2021-02-19 11:42:07  28.2  74.1 
 178528  452-9D  2021-02-19 11:22:04  28.1  74.4 
 178520  452-9D  2021-02-19 11:02:02  28.0  74.6 
 178512  452-9D  2021-02-19 10:41:59  28.0  74.7 
 178504  452-9D  2021-02-19 10:21:55  28.0  74.9 
 178496  452-9D  2021-02-19 10:01:50  28.0  75.3 
 178488  452-9D  2021-02-19 09:41:45  27.8  75.9 
 178480  452-9D  2021-02-19 09:21:43  27.8  76.0 
 178472  452-9D  2021-02-19 09:01:40  27.8  76.0 
 178464  452-9D  2021-02-19 08:41:35  27.7  76.2 
 178456  452-9D  2021-02-19 08:21:32  27.7  76.3 
 178448  452-9D  2021-02-19 08:01:25  27.8  76.0 
 178440  452-9D  2021-02-19 07:41:20  27.8  75.5 
 178432  452-9D  2021-02-19 07:21:18  27.8  75.5 
 178424  452-9D  2021-02-19 07:01:13  27.9  75.0 
 178416  452-9D  2021-02-19 06:41:11  27.9  75.0 
 178408  452-9D  2021-02-19 06:21:04  27.9  75.0 
 178400  452-9D  2021-02-19 06:00:59  28.0  74.9 
 178392  452-9D  2021-02-19 05:40:55  28.0  75.0 
 178384  452-9D  2021-02-19 05:20:50  28.4  74.8 
 178376  452-9D  2021-02-19 05:00:48  28.2  74.4 

Data every 20 minute.


Data of room  452-9D


Data every 20 minute.

  Show Graph